createdAt,value
2017-11-14T00:00:32.602Z,1011.63
2017-11-14T00:01:32.594Z,1011.65
2017-11-14T00:02:32.585Z,1011.61
2017-11-14T00:03:32.579Z,1011.59
2017-11-14T00:04:32.571Z,1011.57
2017-11-14T00:05:32.571Z,1011.56
2017-11-14T00:06:32.556Z,1011.55
2017-11-14T00:07:32.549Z,1011.59
2017-11-14T00:08:32.541Z,1011.59
2017-11-14T00:09:32.535Z,1011.60
2017-11-14T00:10:32.525Z,1011.60
2017-11-14T00:11:32.519Z,1011.60
2017-11-14T00:12:32.511Z,1011.58
2017-11-14T00:13:32.504Z,1011.63
2017-11-14T00:14:32.496Z,1011.59
2017-11-14T00:15:32.487Z,1011.62
2017-11-14T00:16:32.482Z,1011.62
2017-11-14T00:17:32.472Z,1011.58
2017-11-14T00:18:32.465Z,1011.60
2017-11-14T00:19:32.459Z,1011.64
2017-11-14T00:20:32.449Z,1011.64
2017-11-14T00:21:32.442Z,1011.65
2017-11-14T00:22:32.434Z,1011.63
2017-11-14T00:23:32.426Z,1011.66
2017-11-14T00:24:32.419Z,1011.67
2017-11-14T00:25:32.411Z,1011.66
2017-11-14T00:26:32.403Z,1011.72
2017-11-14T00:27:32.395Z,1011.73
2017-11-14T00:28:32.389Z,1011.72
2017-11-14T00:29:32.380Z,1011.69
2017-11-14T00:30:32.370Z,1011.73
2017-11-14T00:31:32.365Z,1011.69
2017-11-14T00:32:32.356Z,1011.71
2017-11-14T00:33:32.350Z,1011.71
2017-11-14T00:34:32.340Z,1011.71
2017-11-14T00:35:32.333Z,1011.71
2017-11-14T00:36:32.332Z,1011.71
2017-11-14T00:37:32.320Z,1011.76
2017-11-14T00:38:32.310Z,1011.74
2017-11-14T00:39:32.303Z,1011.71
2017-11-14T00:40:32.296Z,1011.74
2017-11-14T00:41:32.288Z,1011.72
2017-11-14T00:42:32.279Z,1011.70
2017-11-14T00:43:32.273Z,1011.71
2017-11-14T00:44:32.262Z,1011.69
2017-11-14T00:45:32.258Z,1011.67
2017-11-14T00:46:32.248Z,1011.70
2017-11-14T00:47:32.241Z,1011.67
2017-11-14T00:48:32.233Z,1011.68
2017-11-14T00:49:32.225Z,1011.72
2017-11-14T00:50:32.220Z,1011.75
2017-11-14T00:51:32.209Z,1011.74
2017-11-14T00:52:32.204Z,1011.78
2017-11-14T00:53:32.199Z,1011.78
2017-11-14T00:54:32.186Z,1011.79
2017-11-14T00:55:32.182Z,1011.80
2017-11-14T00:56:32.174Z,1011.81
2017-11-14T00:57:32.165Z,1011.76
2017-11-14T00:58:32.156Z,1011.81
2017-11-14T00:59:32.151Z,1011.79
2017-11-14T01:00:32.142Z,1011.83
2017-11-14T01:01:32.136Z,1011.84
2017-11-14T01:02:32.129Z,1011.84
2017-11-14T01:03:32.120Z,1011.85
2017-11-14T01:04:32.111Z,1011.84
2017-11-14T01:05:32.103Z,1011.83
2017-11-14T01:06:32.096Z,1011.82
2017-11-14T01:07:32.089Z,1011.84
2017-11-14T01:08:32.082Z,1011.85
2017-11-14T01:09:32.074Z,1011.85
2017-11-14T01:10:32.066Z,1011.85
2017-11-14T01:11:32.059Z,1011.87
2017-11-14T01:12:32.051Z,1011.85
2017-11-14T01:13:32.045Z,1011.84
2017-11-14T01:14:32.039Z,1011.87
2017-11-14T01:15:32.029Z,1011.91
2017-11-14T01:16:32.022Z,1011.88
2017-11-14T01:17:32.015Z,1011.94
2017-11-14T01:18:32.008Z,1011.93
2017-11-14T01:19:32.024Z,1011.94
2017-11-14T01:20:31.992Z,1011.91
2017-11-14T01:21:31.986Z,1011.90
2017-11-14T01:22:31.976Z,1011.83
2017-11-14T01:23:31.969Z,1011.91
2017-11-14T01:24:31.963Z,1011.88
2017-11-14T01:25:31.955Z,1011.88
2017-11-14T01:26:31.948Z,1011.90
2017-11-14T01:27:31.940Z,1011.97
2017-11-14T01:28:31.934Z,1011.96
2017-11-14T01:29:31.929Z,1011.94
2017-11-14T01:30:31.918Z,1011.96
2017-11-14T01:31:31.913Z,1011.93
2017-11-14T01:32:31.905Z,1011.96
2017-11-14T01:33:31.898Z,1011.95
2017-11-14T01:34:31.889Z,1011.94
2017-11-14T01:35:31.886Z,1011.98
2017-11-14T01:36:31.874Z,1011.94
2017-11-14T01:37:31.869Z,1011.96
2017-11-14T01:38:31.860Z,1011.95
2017-11-14T01:39:31.853Z,1011.96
2017-11-14T01:40:31.846Z,1011.96
2017-11-14T01:41:31.839Z,1011.96
2017-11-14T01:42:31.831Z,1011.97
2017-11-14T01:43:31.823Z,1011.92
2017-11-14T01:44:31.814Z,1011.92
2017-11-14T01:45:31.809Z,1011.88
2017-11-14T01:46:31.799Z,1011.86
2017-11-14T01:47:31.793Z,1011.86
2017-11-14T01:48:31.786Z,1011.86
2017-11-14T01:49:31.778Z,1011.84
2017-11-14T01:50:31.770Z,1011.84
2017-11-14T01:51:31.763Z,1011.87
2017-11-14T01:52:31.755Z,1011.91
2017-11-14T01:53:31.748Z,1011.89
2017-11-14T01:54:31.741Z,1011.90
2017-11-14T01:55:31.732Z,1011.89
2017-11-14T01:56:31.726Z,1011.86
2017-11-14T01:57:31.721Z,1011.85
2017-11-14T01:58:31.710Z,1011.86
2017-11-14T01:59:31.704Z,1011.80
2017-11-14T02:00:31.698Z,1011.78
2017-11-14T02:01:31.700Z,1011.82
2017-11-14T02:02:31.680Z,1011.86
2017-11-14T02:03:31.675Z,1011.85
2017-11-14T02:04:31.665Z,1011.84
2017-11-14T02:05:31.658Z,1011.88
2017-11-14T02:06:31.650Z,1011.92
2017-11-14T02:07:31.643Z,1011.92
2017-11-14T02:08:31.635Z,1011.92
2017-11-14T02:09:31.627Z,1011.95
2017-11-14T02:10:31.624Z,1011.98
2017-11-14T02:11:31.611Z,1011.99
2017-11-14T02:12:31.606Z,1011.95
2017-11-14T02:13:31.597Z,1011.97
2017-11-14T02:14:31.588Z,1011.97
2017-11-14T02:15:31.582Z,1011.96
2017-11-14T02:16:31.574Z,1011.93
2017-11-14T02:17:31.567Z,1011.88
2017-11-14T02:18:31.559Z,1011.89
2017-11-14T02:19:31.551Z,1011.85
2017-11-14T02:20:31.545Z,1011.82
2017-11-14T02:21:31.537Z,1011.79
2017-11-14T02:22:31.528Z,1011.81
2017-11-14T02:23:31.523Z,1011.80
2017-11-14T02:24:31.513Z,1011.79
2017-11-14T02:25:31.506Z,1011.85
2017-11-14T02:26:31.497Z,1011.88
2017-11-14T02:27:31.490Z,1011.92
2017-11-14T02:28:31.482Z,1011.89
2017-11-14T02:29:31.479Z,1011.91
2017-11-14T02:30:31.466Z,1011.86
2017-11-14T02:31:31.459Z,1011.92
2017-11-14T02:32:31.454Z,1011.93
2017-11-14T02:33:31.445Z,1011.91
2017-11-14T02:34:31.443Z,1011.92
2017-11-14T02:35:31.436Z,1011.91
2017-11-14T02:36:31.422Z,1011.92
2017-11-14T02:37:31.416Z,1011.95
2017-11-14T02:38:31.409Z,1011.91
2017-11-14T02:39:31.401Z,1011.92
2017-11-14T02:40:31.392Z,1011.98
2017-11-14T02:41:31.385Z,1011.95
2017-11-14T02:42:31.377Z,1011.99
2017-11-14T02:43:31.370Z,1011.97
2017-11-14T02:44:31.366Z,1011.97
2017-11-14T02:45:31.355Z,1012.03
2017-11-14T02:46:31.346Z,1011.94
2017-11-14T02:47:31.338Z,1011.92
2017-11-14T02:48:31.331Z,1011.92
2017-11-14T02:49:31.324Z,1011.94
2017-11-14T02:50:31.318Z,1011.93
2017-11-14T02:51:31.308Z,1011.88
2017-11-14T02:52:31.302Z,1011.92
2017-11-14T02:53:31.298Z,1011.92
2017-11-14T02:54:31.286Z,1011.94
2017-11-14T02:55:31.280Z,1011.87
2017-11-14T02:56:31.276Z,1011.93
2017-11-14T02:57:31.265Z,1011.89
2017-11-14T02:58:31.257Z,1011.90
2017-11-14T02:59:31.251Z,1011.82
2017-11-14T03:00:31.241Z,1011.84
2017-11-14T03:01:31.234Z,1011.83
2017-11-14T03:02:31.226Z,1011.81
2017-11-14T03:03:31.219Z,1011.79
2017-11-14T03:04:31.212Z,1011.77
2017-11-14T03:05:31.205Z,1011.79
2017-11-14T03:06:31.196Z,1011.80
2017-11-14T03:07:31.189Z,1011.77
2017-11-14T03:08:31.182Z,1011.76
2017-11-14T03:09:31.176Z,1011.78
2017-11-14T03:10:31.167Z,1011.77
2017-11-14T03:11:31.159Z,1011.78
2017-11-14T03:12:31.154Z,1011.74
2017-11-14T03:13:31.144Z,1011.72
2017-11-14T03:14:31.136Z,1011.75
2017-11-14T03:15:31.129Z,1011.77
2017-11-14T03:16:31.121Z,1011.77
2017-11-14T03:17:31.114Z,1011.76
2017-11-14T03:18:31.106Z,1011.78
2017-11-14T03:19:31.100Z,1011.78
2017-11-14T03:20:31.093Z,1011.76
2017-11-14T03:21:31.085Z,1011.76
2017-11-14T03:22:31.077Z,1011.80
2017-11-14T03:23:31.076Z,1011.76
2017-11-14T03:24:31.063Z,1011.78
2017-11-14T03:25:31.057Z,1011.80
2017-11-14T03:26:31.048Z,1011.82
2017-11-14T03:27:31.041Z,1011.79
2017-11-14T03:28:31.034Z,1011.79
2017-11-14T03:29:31.034Z,1011.74
2017-11-14T03:30:31.021Z,1011.75
2017-11-14T03:31:31.017Z,1011.74
2017-11-14T03:32:31.004Z,1011.71
2017-11-14T03:33:30.997Z,1011.76
2017-11-14T03:34:30.988Z,1011.71
2017-11-14T03:35:30.981Z,1011.74
2017-11-14T03:36:30.974Z,1011.75
2017-11-14T03:37:30.967Z,1011.74
2017-11-14T03:38:30.963Z,1011.71
2017-11-14T03:39:30.951Z,1011.74
2017-11-14T03:40:30.946Z,1011.76
2017-11-14T03:41:30.937Z,1011.80
2017-11-14T03:42:30.929Z,1011.82
2017-11-14T03:43:30.923Z,1011.86
2017-11-14T03:44:30.915Z,1011.87
2017-11-14T03:45:30.909Z,1011.89
2017-11-14T03:46:30.901Z,1011.88
2017-11-14T03:47:30.893Z,1011.87
2017-11-14T03:48:30.887Z,1011.88
2017-11-14T03:49:30.880Z,1011.91
2017-11-14T03:50:30.872Z,1011.96
2017-11-14T03:51:30.864Z,1011.91
2017-11-14T03:52:30.857Z,1011.93
2017-11-14T03:53:30.853Z,1011.95
2017-11-14T03:54:30.842Z,1011.96
2017-11-14T03:55:30.835Z,1011.96
2017-11-14T03:56:30.827Z,1011.93
2017-11-14T03:57:30.822Z,1011.92
2017-11-14T03:58:30.813Z,1011.95
2017-11-14T03:59:30.806Z,1011.98
2017-11-14T04:00:30.800Z,1011.93
2017-11-14T04:01:30.792Z,1011.98
2017-11-14T04:02:30.783Z,1011.96
2017-11-14T04:03:30.775Z,1011.95
2017-11-14T04:04:30.770Z,1011.99
2017-11-14T04:05:30.763Z,1011.94
2017-11-14T04:06:30.754Z,1011.99
2017-11-14T04:07:30.748Z,1011.99
2017-11-14T04:08:30.741Z,1012.00
2017-11-14T04:09:30.732Z,1012.03
2017-11-14T04:10:30.724Z,1012.01
2017-11-14T04:11:30.717Z,1012.04
2017-11-14T04:12:30.710Z,1012.06
2017-11-14T04:13:30.702Z,1012.02
2017-11-14T04:14:30.694Z,1012.00
2017-11-14T04:15:30.689Z,1012.02
2017-11-14T04:16:30.681Z,1012.03
2017-11-14T04:17:30.673Z,1012.07
2017-11-14T04:18:30.666Z,1012.06
2017-11-14T04:19:30.659Z,1012.07
2017-11-14T04:20:30.651Z,1012.06
2017-11-14T04:21:30.645Z,1012.07
2017-11-14T04:22:30.640Z,1012.07
2017-11-14T04:23:30.629Z,1012.03
2017-11-14T04:24:30.619Z,1012.06
2017-11-14T04:25:30.613Z,1012.05
2017-11-14T04:26:30.613Z,1012.03
2017-11-14T04:27:30.598Z,1012.01
2017-11-14T04:28:30.589Z,1012.00
2017-11-14T04:29:30.582Z,1012.00
2017-11-14T04:30:30.574Z,1011.99
2017-11-14T04:31:30.567Z,1012.01
2017-11-14T04:32:30.559Z,1011.95
2017-11-14T04:33:30.552Z,1011.95
2017-11-14T04:34:30.543Z,1011.93
2017-11-14T04:35:30.536Z,1011.95
2017-11-14T04:36:30.530Z,1011.94
2017-11-14T04:37:30.521Z,1011.94
2017-11-14T04:38:30.513Z,1011.93
2017-11-14T04:39:30.511Z,1011.84
2017-11-14T04:40:30.504Z,1011.89
2017-11-14T04:41:30.491Z,1011.87
2017-11-14T04:42:30.484Z,1011.87
2017-11-14T04:43:30.476Z,1011.88
2017-11-14T04:44:30.469Z,1011.87
2017-11-14T04:45:30.459Z,1011.86
2017-11-14T04:46:30.451Z,1011.86
2017-11-14T04:47:30.445Z,1011.81
2017-11-14T04:48:30.436Z,1011.87
2017-11-14T04:49:30.429Z,1011.84
2017-11-14T04:50:30.421Z,1011.87
2017-11-14T04:51:30.413Z,1011.89
2017-11-14T04:52:30.407Z,1011.83
2017-11-14T04:53:30.397Z,1011.85
2017-11-14T04:54:30.390Z,1011.82
2017-11-14T04:55:30.383Z,1011.80
2017-11-14T04:56:30.374Z,1011.82
2017-11-14T04:57:30.367Z,1011.79
2017-11-14T04:58:30.358Z,1011.80
2017-11-14T04:59:30.351Z,1011.83
2017-11-14T05:00:30.344Z,1011.82
2017-11-14T05:01:30.336Z,1011.82
2017-11-14T05:02:30.326Z,1011.82
2017-11-14T05:03:30.319Z,1011.83
2017-11-14T05:04:30.312Z,1011.82
2017-11-14T05:05:30.304Z,1011.76
2017-11-14T05:06:30.295Z,1011.82
2017-11-14T05:07:30.289Z,1011.82
2017-11-14T05:08:30.280Z,1011.85
2017-11-14T05:09:30.272Z,1011.85
2017-11-14T05:10:30.265Z,1011.87
2017-11-14T05:11:30.257Z,1011.93
2017-11-14T05:12:30.250Z,1011.93
2017-11-14T05:13:30.242Z,1011.94
2017-11-14T05:14:30.233Z,1011.94
2017-11-14T05:15:30.225Z,1011.95
2017-11-14T05:16:30.216Z,1011.95
2017-11-14T05:17:30.209Z,1011.90
2017-11-14T05:18:30.200Z,1011.95
2017-11-14T05:19:30.193Z,1011.96
2017-11-14T05:20:30.185Z,1011.91
2017-11-14T05:21:30.177Z,1011.88
2017-11-14T05:22:30.168Z,1011.83
2017-11-14T05:23:30.160Z,1011.89
2017-11-14T05:24:30.151Z,1011.87
2017-11-14T05:25:30.146Z,1011.88
2017-11-14T05:26:30.142Z,1011.87
2017-11-14T05:27:30.128Z,1011.89
2017-11-14T05:28:30.120Z,1011.84
2017-11-14T05:29:30.112Z,1011.83
2017-11-14T05:30:30.102Z,1011.83
2017-11-14T05:31:30.095Z,1011.84
2017-11-14T05:32:30.086Z,1011.87
2017-11-14T05:33:30.080Z,1011.86
2017-11-14T05:34:30.071Z,1011.85
2017-11-14T05:35:30.064Z,1011.88
2017-11-14T05:36:30.053Z,1011.85
2017-11-14T05:37:30.046Z,1011.90
2017-11-14T05:38:30.038Z,1011.91
2017-11-14T05:39:30.029Z,1011.98
2017-11-14T05:40:30.021Z,1011.96
2017-11-14T05:41:30.013Z,1011.97
2017-11-14T05:42:30.005Z,1011.98
2017-11-14T05:43:29.995Z,1011.98
2017-11-14T05:44:29.989Z,1011.98
2017-11-14T05:45:29.978Z,1012.00
2017-11-14T05:46:29.972Z,1012.03
2017-11-14T05:47:29.963Z,1012.01
2017-11-14T05:48:29.954Z,1012.07
2017-11-14T05:49:29.946Z,1012.02
2017-11-14T05:50:29.936Z,1012.01
2017-11-14T05:51:29.927Z,1012.02
2017-11-14T05:52:29.920Z,1012.09
2017-11-14T05:53:29.920Z,1012.05
2017-11-14T05:54:29.908Z,1012.03
2017-11-14T05:55:29.894Z,1012.03
2017-11-14T05:56:29.887Z,1012.01
2017-11-14T05:57:29.888Z,1012.02
2017-11-14T05:58:29.870Z,1012.02
2017-11-14T05:59:29.863Z,1012.08
2017-11-14T06:00:29.853Z,1012.04
2017-11-14T06:01:29.844Z,1011.99
2017-11-14T06:02:29.837Z,1011.97
2017-11-14T06:03:29.827Z,1012.01
2017-11-14T06:04:29.820Z,1011.99
2017-11-14T06:05:29.812Z,1012.01
2017-11-14T06:06:29.804Z,1012.00
2017-11-14T06:07:29.795Z,1012.05
2017-11-14T06:08:29.787Z,1012.05
2017-11-14T06:09:29.797Z,1012.04
2017-11-14T06:10:29.769Z,1012.04
2017-11-14T06:11:29.762Z,1012.08
2017-11-14T06:12:29.760Z,1012.09
2017-11-14T06:13:29.746Z,1012.14
2017-11-14T06:14:29.737Z,1012.14
2017-11-14T06:15:29.730Z,1012.21
2017-11-14T06:16:29.723Z,1012.20
2017-11-14T06:17:29.713Z,1012.18
2017-11-14T06:18:29.706Z,1012.20
2017-11-14T06:19:29.696Z,1012.23
2017-11-14T06:20:29.689Z,1012.28
2017-11-14T06:21:29.682Z,1012.28
2017-11-14T06:22:29.673Z,1012.27
2017-11-14T06:23:29.664Z,1012.32
2017-11-14T06:24:29.657Z,1012.29
2017-11-14T06:25:29.649Z,1012.26
2017-11-14T06:26:29.638Z,1012.35
2017-11-14T06:27:29.632Z,1012.37
2017-11-14T06:28:29.624Z,1012.42
2017-11-14T06:29:29.617Z,1012.40
2017-11-14T06:30:29.610Z,1012.38
2017-11-14T06:31:29.606Z,1012.40
2017-11-14T06:32:29.592Z,1012.39
2017-11-14T06:33:29.585Z,1012.44
2017-11-14T06:34:29.576Z,1012.43
2017-11-14T06:35:29.569Z,1012.44
2017-11-14T06:36:29.561Z,1012.43
2017-11-14T06:37:29.552Z,1012.46
2017-11-14T06:38:29.545Z,1012.50
2017-11-14T06:39:29.537Z,1012.49
2017-11-14T06:40:29.529Z,1012.49
2017-11-14T06:41:29.522Z,1012.46
2017-11-14T06:42:29.512Z,1012.47
2017-11-14T06:43:29.506Z,1012.45
2017-11-14T06:44:29.497Z,1012.50
2017-11-14T06:45:29.492Z,1012.47
2017-11-14T06:46:29.481Z,1012.45
2017-11-14T06:47:29.474Z,1012.43
2017-11-14T06:48:29.466Z,1012.41
2017-11-14T06:49:29.460Z,1012.44
2017-11-14T06:50:29.450Z,1012.48
2017-11-14T06:51:29.451Z,1012.44
2017-11-14T06:52:29.435Z,1012.46
2017-11-14T06:53:29.427Z,1012.47
2017-11-14T06:54:29.418Z,1012.48
2017-11-14T06:55:29.412Z,1012.47
2017-11-14T06:56:29.402Z,1012.42
2017-11-14T06:57:29.395Z,1012.41
2017-11-14T06:58:29.387Z,1012.39
2017-11-14T06:59:29.382Z,1012.45
2017-11-14T07:00:29.373Z,1012.48
2017-11-14T07:01:29.364Z,1012.49
2017-11-14T07:02:29.377Z,1012.52
2017-11-14T07:03:29.348Z,1012.51
2017-11-14T07:04:29.341Z,1012.51
2017-11-14T07:05:29.342Z,1012.49
2017-11-14T07:06:29.326Z,1012.53
2017-11-14T07:07:29.317Z,1012.57
2017-11-14T07:08:29.310Z,1012.58
2017-11-14T07:09:29.305Z,1012.57
2017-11-14T07:10:29.294Z,1012.59
2017-11-14T07:11:29.288Z,1012.61
2017-11-14T07:12:29.278Z,1012.56
2017-11-14T07:13:29.272Z,1012.56
2017-11-14T07:14:29.264Z,1012.58
2017-11-14T07:15:29.256Z,1012.57
2017-11-14T07:16:29.247Z,1012.53
2017-11-14T07:17:29.240Z,1012.54
2017-11-14T07:18:29.231Z,1012.57
2017-11-14T07:19:29.226Z,1012.53
2017-11-14T07:20:29.217Z,1012.54
2017-11-14T07:21:29.211Z,1012.57
2017-11-14T07:22:29.201Z,1012.55
2017-11-14T07:23:29.193Z,1012.58
2017-11-14T07:24:29.187Z,1012.59
2017-11-14T07:25:29.179Z,1012.59
2017-11-14T07:26:29.171Z,1012.60
2017-11-14T07:27:29.168Z,1012.58
2017-11-14T07:28:29.155Z,1012.55
2017-11-14T07:29:29.149Z,1012.58
2017-11-14T07:30:29.141Z,1012.59
2017-11-14T07:31:29.132Z,1012.59
2017-11-14T07:32:29.124Z,1012.58
2017-11-14T07:33:29.127Z,1012.59
2017-11-14T07:34:29.112Z,1012.53
2017-11-14T07:35:29.102Z,1012.57
2017-11-14T07:36:29.096Z,1012.55
2017-11-14T07:37:29.089Z,1012.52
2017-11-14T07:38:29.081Z,1012.53
2017-11-14T07:39:29.076Z,1012.47
2017-11-14T07:40:29.069Z,1012.51
2017-11-14T07:41:29.058Z,1012.43
2017-11-14T07:42:29.049Z,1012.47
2017-11-14T07:43:29.041Z,1012.43
2017-11-14T07:44:29.036Z,1012.45
2017-11-14T07:45:29.027Z,1012.51
2017-11-14T07:46:29.024Z,1012.50
2017-11-14T07:47:29.013Z,1012.47
2017-11-14T07:48:29.015Z,1012.47
2017-11-14T07:49:29.000Z,1012.44
2017-11-14T07:50:28.995Z,1012.44
2017-11-14T07:51:28.985Z,1012.47
2017-11-14T07:52:28.976Z,1012.47
2017-11-14T07:53:28.975Z,1012.51
2017-11-14T07:54:28.962Z,1012.53
2017-11-14T07:55:28.955Z,1012.57
2017-11-14T07:56:28.947Z,1012.60
2017-11-14T07:57:28.941Z,1012.65
2017-11-14T07:58:28.933Z,1012.61
2017-11-14T07:59:28.925Z,1012.60
2017-11-14T08:00:28.919Z,1012.61
2017-11-14T08:01:28.913Z,1012.60
2017-11-14T08:02:28.915Z,1012.61
2017-11-14T08:03:28.897Z,1012.61
2017-11-14T08:04:28.890Z,1012.58
2017-11-14T08:05:28.883Z,1012.61
2017-11-14T08:06:28.876Z,1012.60
2017-11-14T08:07:28.870Z,1012.59
2017-11-14T08:08:28.861Z,1012.59
2017-11-14T08:09:28.856Z,1012.59
2017-11-14T08:10:28.847Z,1012.60
2017-11-14T08:11:28.840Z,1012.60
2017-11-14T08:12:28.833Z,1012.61
2017-11-14T08:13:28.825Z,1012.63
2017-11-14T08:14:28.821Z,1012.56
2017-11-14T08:15:28.811Z,1012.55
2017-11-14T08:16:28.803Z,1012.50
2017-11-14T08:17:28.799Z,1012.51
2017-11-14T08:18:28.789Z,1012.52
2017-11-14T08:19:28.785Z,1012.52
2017-11-14T08:20:28.775Z,1012.50
2017-11-14T08:21:28.772Z,1012.50
2017-11-14T08:22:28.763Z,1012.47
2017-11-14T08:23:28.756Z,1012.47
2017-11-14T08:24:28.750Z,1012.47
2017-11-14T08:25:28.743Z,1012.39
2017-11-14T08:26:28.734Z,1012.37
2017-11-14T08:27:28.730Z,1012.30
2017-11-14T08:28:28.721Z,1012.29
2017-11-14T08:29:28.715Z,1012.30
2017-11-14T08:30:28.707Z,1012.33
2017-11-14T08:31:28.708Z,1012.35
2017-11-14T08:32:28.715Z,1012.39
2017-11-14T08:33:28.690Z,1012.39
2017-11-14T08:34:28.679Z,1012.42
2017-11-14T08:35:28.673Z,1012.40
2017-11-14T08:36:28.667Z,1012.45
2017-11-14T08:37:28.660Z,1012.45
2017-11-14T08:38:28.652Z,1012.47
2017-11-14T08:39:28.645Z,1012.45
2017-11-14T08:40:28.638Z,1012.49
2017-11-14T08:41:28.632Z,1012.48
2017-11-14T08:42:28.624Z,1012.52
2017-11-14T08:43:28.618Z,1012.55
2017-11-14T08:44:28.610Z,1012.52
2017-11-14T08:45:28.605Z,1012.47
2017-11-14T08:46:28.604Z,1012.43
2017-11-14T08:47:28.589Z,1012.42
2017-11-14T08:48:28.583Z,1012.43
2017-11-14T08:49:28.577Z,1012.45
2017-11-14T08:50:28.569Z,1012.49
2017-11-14T08:51:28.563Z,1012.49
2017-11-14T08:52:28.555Z,1012.52
2017-11-14T08:53:28.548Z,1012.52
2017-11-14T08:54:28.542Z,1012.53
2017-11-14T08:55:28.534Z,1012.55
2017-11-14T08:56:28.528Z,1012.57
2017-11-14T08:57:28.520Z,1012.58
2017-11-14T08:58:28.515Z,1012.56
2017-11-14T08:59:28.511Z,1012.63
2017-11-14T09:00:28.500Z,1012.60
2017-11-14T09:01:28.495Z,1012.62
2017-11-14T09:02:28.487Z,1012.59
2017-11-14T09:03:28.480Z,1012.61
2017-11-14T09:04:28.474Z,1012.57
2017-11-14T09:05:28.469Z,1012.56
2017-11-14T09:06:28.459Z,1012.59
2017-11-14T09:07:28.463Z,1012.58
2017-11-14T09:08:28.447Z,1012.59
2017-11-14T09:09:28.444Z,1012.62
2017-11-14T09:10:28.434Z,1012.59
2017-11-14T09:11:28.427Z,1012.58
2017-11-14T09:12:28.425Z,1012.57
2017-11-14T09:13:28.418Z,1012.58
2017-11-14T09:14:28.407Z,1012.55
2017-11-14T09:15:28.400Z,1012.56
2017-11-14T09:16:28.394Z,1012.63
2017-11-14T09:17:28.389Z,1012.63
2017-11-14T09:18:28.380Z,1012.63
2017-11-14T09:19:28.378Z,1012.70
2017-11-14T09:20:28.368Z,1012.66
2017-11-14T09:21:28.362Z,1012.67
2017-11-14T09:22:28.354Z,1012.69
2017-11-14T09:23:28.348Z,1012.77
2017-11-14T09:24:28.342Z,1012.75
2017-11-14T09:25:28.336Z,1012.73
2017-11-14T09:26:28.331Z,1012.84
2017-11-14T09:27:28.323Z,1012.87
2017-11-14T09:28:28.318Z,1012.85
2017-11-14T09:29:28.312Z,1012.87
2017-11-14T09:30:28.305Z,1012.93
2017-11-14T09:31:28.299Z,1012.97
2017-11-14T09:32:28.293Z,1012.99
2017-11-14T09:33:28.285Z,1013.01
2017-11-14T09:34:28.279Z,1013.01
2017-11-14T09:35:28.274Z,1012.95
2017-11-14T09:36:28.269Z,1012.96
2017-11-14T09:37:28.261Z,1012.92
2017-11-14T09:38:28.254Z,1012.98
2017-11-14T09:39:28.248Z,1012.98
2017-11-14T09:40:28.246Z,1013.00
2017-11-14T09:41:28.238Z,1013.05
2017-11-14T09:42:28.230Z,1013.08
2017-11-14T09:43:28.224Z,1013.07
2017-11-14T09:44:28.220Z,1013.10
2017-11-14T09:45:28.212Z,1013.12
2017-11-14T09:46:28.206Z,1013.14
2017-11-14T09:47:28.200Z,1013.17
2017-11-14T09:48:28.205Z,1013.18
2017-11-14T09:49:28.191Z,1013.22
2017-11-14T09:50:28.182Z,1013.26
2017-11-14T09:51:28.176Z,1013.31
2017-11-14T09:52:28.172Z,1013.32
2017-11-14T09:53:28.165Z,1013.34
2017-11-14T09:54:28.160Z,1013.34
2017-11-14T09:55:28.152Z,1013.35
2017-11-14T09:56:28.147Z,1013.36
2017-11-14T09:57:28.142Z,1013.34
2017-11-14T09:58:28.135Z,1013.38
2017-11-14T09:59:28.131Z,1013.41
2017-11-14T10:00:28.126Z,1013.42
2017-11-14T10:01:28.119Z,1013.40
2017-11-14T10:02:28.114Z,1013.43
2017-11-14T10:03:28.107Z,1013.37
2017-11-14T10:04:28.102Z,1013.42
2017-11-14T10:05:28.098Z,1013.41
2017-11-14T10:06:28.090Z,1013.36
2017-11-14T10:07:28.088Z,1013.33
2017-11-14T10:08:28.079Z,1013.27
2017-11-14T10:09:28.075Z,1013.26
2017-11-14T10:10:28.068Z,1013.27
2017-11-14T10:11:28.064Z,1013.20
2017-11-14T10:12:28.057Z,1013.27
2017-11-14T10:13:28.053Z,1013.28
2017-11-14T10:14:28.046Z,1013.26
2017-11-14T10:15:28.041Z,1013.25
2017-11-14T10:16:28.038Z,1013.30
2017-11-14T10:17:28.030Z,1013.27
2017-11-14T10:18:28.025Z,1013.26
2017-11-14T10:19:28.021Z,1013.20
2017-11-14T10:20:28.015Z,1013.08
2017-11-14T10:21:28.011Z,1013.03
2017-11-14T10:22:28.002Z,1013.02
2017-11-14T10:23:27.997Z,1012.99
2017-11-14T10:24:27.993Z,1012.99
2017-11-14T10:25:27.988Z,1013.07
2017-11-14T10:26:27.982Z,1013.08
2017-11-14T10:27:27.979Z,1013.09
2017-11-14T10:28:27.973Z,1013.05
2017-11-14T10:29:27.968Z,1013.04
2017-11-14T10:30:27.963Z,1013.00
2017-11-14T10:31:27.957Z,1012.97
2017-11-14T10:32:27.953Z,1012.94
2017-11-14T10:33:27.947Z,1012.99
2017-11-14T10:34:27.941Z,1012.93
2017-11-14T10:35:27.936Z,1012.95
2017-11-14T10:36:27.931Z,1012.97
2017-11-14T10:37:27.928Z,1012.96
2017-11-14T10:38:27.920Z,1012.95
2017-11-14T10:39:27.916Z,1012.99
2017-11-14T10:40:27.912Z,1012.92
2017-11-14T10:41:27.907Z,1012.93
2017-11-14T10:42:27.903Z,1012.85
2017-11-14T10:43:27.896Z,1012.92
2017-11-14T10:44:27.894Z,1012.88
2017-11-14T10:45:27.887Z,1012.84
2017-11-14T10:46:27.881Z,1012.83
2017-11-14T10:47:27.877Z,1012.79
2017-11-14T10:48:27.872Z,1012.79
2017-11-14T10:49:27.867Z,1012.77
2017-11-14T10:50:27.860Z,1012.81
2017-11-14T10:51:27.856Z,1012.74
2017-11-14T10:52:27.851Z,1012.69
2017-11-14T10:53:27.845Z,1012.68
2017-11-14T10:54:27.840Z,1012.70
2017-11-14T10:55:27.837Z,1012.64
2017-11-14T10:56:27.830Z,1012.64
2017-11-14T10:57:27.829Z,1012.66
2017-11-14T10:58:27.823Z,1012.64
2017-11-14T10:59:27.817Z,1012.72
2017-11-14T11:00:27.816Z,1012.67
2017-11-14T11:01:27.807Z,1012.68
2017-11-14T11:02:27.801Z,1012.65
2017-11-14T11:03:27.798Z,1012.59
2017-11-14T11:04:27.793Z,1012.54
2017-11-14T11:05:27.789Z,1012.59
2017-11-14T11:06:27.782Z,1012.68
2017-11-14T11:07:27.779Z,1012.60
2017-11-14T11:08:27.773Z,1012.64
2017-11-14T11:09:27.770Z,1012.65
2017-11-14T11:10:27.763Z,1012.68
2017-11-14T11:11:27.760Z,1012.67
2017-11-14T11:12:27.757Z,1012.58
2017-11-14T11:13:27.751Z,1012.59
2017-11-14T11:14:27.745Z,1012.62
2017-11-14T11:15:27.740Z,1012.67
2017-11-14T11:16:27.736Z,1012.64
2017-11-14T11:17:27.732Z,1012.62
2017-11-14T11:18:27.734Z,1012.63
2017-11-14T11:19:27.723Z,1012.59
2017-11-14T11:20:27.718Z,1012.60
2017-11-14T11:21:27.713Z,1012.73
2017-11-14T11:22:27.707Z,1012.66
2017-11-14T11:23:27.704Z,1012.70
2017-11-14T11:24:27.699Z,1012.65
2017-11-14T11:25:27.694Z,1012.67
2017-11-14T11:26:27.697Z,1012.60
2017-11-14T11:27:27.686Z,1012.66
2017-11-14T11:28:27.686Z,1012.63
2017-11-14T11:29:27.678Z,1012.62
2017-11-14T11:30:27.672Z,1012.55
2017-11-14T11:31:27.669Z,1012.50
2017-11-14T11:32:27.665Z,1012.52
2017-11-14T11:33:27.660Z,1012.50
2017-11-14T11:34:27.656Z,1012.54
2017-11-14T11:35:27.652Z,1012.53
2017-11-14T11:36:27.648Z,1012.51
2017-11-14T11:37:27.644Z,1012.47
2017-11-14T11:38:27.639Z,1012.52
2017-11-14T11:39:27.635Z,1012.42
2017-11-14T11:40:27.630Z,1012.44
2017-11-14T11:41:27.626Z,1012.44
2017-11-14T11:42:27.621Z,1012.45
2017-11-14T11:43:27.618Z,1012.41
2017-11-14T11:44:27.614Z,1012.43
2017-11-14T11:45:27.610Z,1012.46
2017-11-14T11:46:27.606Z,1012.46
2017-11-14T11:47:27.602Z,1012.50
2017-11-14T11:48:27.597Z,1012.53
2017-11-14T11:49:27.594Z,1012.57
2017-11-14T11:50:27.588Z,1012.55
2017-11-14T11:51:27.586Z,1012.54
2017-11-14T11:52:27.582Z,1012.46
2017-11-14T11:53:27.577Z,1012.50
2017-11-14T11:54:27.573Z,1012.44
2017-11-14T11:55:27.569Z,1012.46
2017-11-14T11:56:27.566Z,1012.48
2017-11-14T11:57:27.562Z,1012.41
2017-11-14T11:58:27.558Z,1012.48
2017-11-14T11:59:27.553Z,1012.39
2017-11-14T12:00:27.550Z,1012.39
2017-11-14T12:01:27.554Z,1012.43
2017-11-14T12:02:27.541Z,1012.39
2017-11-14T12:03:27.537Z,1012.41
2017-11-14T12:04:27.532Z,1012.42
2017-11-14T12:05:27.529Z,1012.42